sensor_id;sensor_type;location;lat;lon;timestamp;pressure;altitude;pressure_sealevel;temperature;humidity
66524;BME280;53350;52.210;5.160;2023-05-03T00:02:09;103050.00;;;9.70;59.25
66524;BME280;53350;52.210;5.160;2023-05-03T00:04:36;103047.31;;;9.67;59.19
66524;BME280;53350;52.210;5.160;2023-05-03T00:07:04;103047.28;;;9.66;59.34
66524;BME280;53350;52.210;5.160;2023-05-03T00:09:32;103042.97;;;9.63;59.25
66524;BME280;53350;52.210;5.160;2023-05-03T00:11:58;103045.50;;;9.62;59.48
66524;BME280;53350;52.210;5.160;2023-05-03T00:14:25;103043.75;;;9.61;59.54
66524;BME280;53350;52.210;5.160;2023-05-03T00:16:52;103043.75;;;9.61;59.62
66524;BME280;53350;52.210;5.160;2023-05-03T00:19:19;103049.63;;;9.56;59.74
66524;BME280;53350;52.210;5.160;2023-05-03T00:21:45;103045.25;;;9.54;59.66
66524;BME280;53350;52.210;5.160;2023-05-03T00:24:13;103046.94;;;9.52;60.07
66524;BME280;53350;52.210;5.160;2023-05-03T00:26:39;103044.31;;;9.50;60.00
66524;BME280;53350;52.210;5.160;2023-05-03T00:29:05;103042.53;;;9.48;60.10
66524;BME280;53350;52.210;5.160;2023-05-03T00:31:32;103048.50;;;9.47;60.18
66524;BME280;53350;52.210;5.160;2023-05-03T00:33:58;103045.06;;;9.46;60.40
66524;BME280;53350;52.210;5.160;2023-05-03T00:36:25;103042.44;;;9.45;60.37
66524;BME280;53350;52.210;5.160;2023-05-03T00:38:52;103044.13;;;9.44;60.39
66524;BME280;53350;52.210;5.160;2023-05-03T00:41:20;103044.09;;;9.43;60.58
66524;BME280;53350;52.210;5.160;2023-05-03T00:43:48;103047.50;;;9.42;60.55
66524;BME280;53350;52.210;5.160;2023-05-03T00:46:15;103046.56;;;9.39;60.49
66524;BME280;53350;52.210;5.160;2023-05-03T00:48:41;103048.25;;;9.37;60.70
66524;BME280;53350;52.210;5.160;2023-05-03T00:51:09;103049.03;;;9.35;60.67
66524;BME280;53350;52.210;5.160;2023-05-03T00:53:37;103039.50;;;9.32;60.80
66524;BME280;53350;52.210;5.160;2023-05-03T00:56:04;103039.44;;;9.29;60.86
66524;BME280;53350;52.210;5.160;2023-05-03T00:58:32;103045.34;;;9.27;60.95
66524;BME280;53350;52.210;5.160;2023-05-03T01:01:01;103050.50;;;9.27;61.01
66524;BME280;53350;52.210;5.160;2023-05-03T01:03:28;103047.84;;;9.23;61.06
66524;BME280;53350;52.210;5.160;2023-05-03T01:06:00;103051.19;;;9.21;61.09
66524;BME280;53350;52.210;5.160;2023-05-03T01:08:37;103052.03;;;9.20;61.09
66524;BME280;53350;52.210;5.160;2023-05-03T01:11:08;103054.56;;;9.18;61.02
66524;BME280;53350;52.210;5.160;2023-05-03T01:13:43;103054.56;;;9.18;61.15
66524;BME280;53350;52.210;5.160;2023-05-03T01:16:18;103037.16;;;9.10;61.17
66524;BME280;53350;52.210;5.160;2023-05-03T01:18:48;103046.66;;;9.12;61.38
66524;BME280;53350;52.210;5.160;2023-05-03T01:21:16;103045.78;;;9.12;61.50
66524;BME280;53350;52.210;5.160;2023-05-03T01:23:50;103050.88;;;9.10;61.35
66524;BME280;53350;52.210;5.160;2023-05-03T01:26:21;103048.31;;;9.10;61.63
66524;BME280;53350;52.210;5.160;2023-05-03T01:28:48;103045.66;;;9.07;61.47
66524;BME280;53350;52.210;5.160;2023-05-03T01:31:18;103034.25;;;8.99;61.66
66524;BME280;53350;52.210;5.160;2023-05-03T01:33:54;103042.06;;;9.02;61.72
66524;BME280;53350;52.210;5.160;2023-05-03T01:36:28;103039.41;;;8.99;61.79
66524;BME280;53350;52.210;5.160;2023-05-03T01:38:57;103040.22;;;8.98;61.90
66524;BME280;53350;52.210;5.160;2023-05-03T01:41:25;103040.19;;;8.96;61.89
66524;BME280;53350;52.210;5.160;2023-05-03T01:43:54;103044.47;;;8.96;62.11
66524;BME280;53350;52.210;5.160;2023-05-03T01:46:21;103041.94;;;8.97;61.56
66524;BME280;53350;52.210;5.160;2023-05-03T01:48:47;103045.31;;;8.96;61.81
66524;BME280;53350;52.210;5.160;2023-05-03T01:51:14;103045.28;;;8.95;61.96
66524;BME280;53350;52.210;5.160;2023-05-03T01:53:40;103042.66;;;8.93;61.73
66524;BME280;53350;52.210;5.160;2023-05-03T01:56:07;103046.91;;;8.91;62.11
66524;BME280;53350;52.210;5.160;2023-05-03T01:58:34;103040.81;;;8.89;62.24
66524;BME280;53350;52.210;5.160;2023-05-03T02:01:03;103039.91;;;8.87;62.10
66524;BME280;53350;52.210;5.160;2023-05-03T02:03:29;103036.44;;;8.85;62.15
66524;BME280;53350;52.210;5.160;2023-05-03T02:05:56;103031.19;;;8.82;62.26
66524;BME280;53350;52.210;5.160;2023-05-03T02:08:22;103031.97;;;8.79;62.44
66524;BME280;53350;52.210;5.160;2023-05-03T02:10:48;103021.63;;;8.76;62.43
66524;BME280;53350;52.210;5.160;2023-05-03T02:13:15;103024.06;;;8.73;62.36
66524;BME280;53350;52.210;5.160;2023-05-03T02:15:43;103007.66;;;8.68;62.89
66524;BME280;53350;52.210;5.160;2023-05-03T02:18:09;103005.00;;;8.65;63.01
66524;BME280;53350;52.210;5.160;2023-05-03T02:20:35;103008.25;;;8.59;62.77
66524;BME280;53350;52.210;5.160;2023-05-03T02:23:02;102997.88;;;8.56;63.15
66524;BME280;53350;52.210;5.160;2023-05-03T02:25:29;103001.97;;;8.51;63.43
66524;BME280;53350;52.210;5.160;2023-05-03T02:27:56;102990.72;;;8.46;63.47
66524;BME280;53350;52.210;5.160;2023-05-03T02:30:22;102988.78;;;8.40;63.60
66524;BME280;53350;52.210;5.160;2023-05-03T02:32:50;102983.38;;;8.32;63.47
66524;BME280;53350;52.210;5.160;2023-05-03T02:35:16;102982.44;;;8.29;64.13
66524;BME280;53350;52.210;5.160;2023-05-03T02:37:43;102986.53;;;8.24;64.13
66524;BME280;53350;52.210;5.160;2023-05-03T02:40:10;102986.31;;;8.16;64.23
66524;BME280;53350;52.210;5.160;2023-05-03T02:42:37;102981.84;;;8.10;64.56
66524;BME280;53350;52.210;5.160;2023-05-03T02:45:04;102993.59;;;8.04;64.69
66524;BME280;53350;52.210;5.160;2023-05-03T02:47:31;102994.25;;;7.98;65.05
66524;BME280;53350;52.210;5.160;2023-05-03T02:49:58;102998.44;;;7.94;64.93
66524;BME280;53350;52.210;5.160;2023-05-03T02:52:25;103002.66;;;7.92;64.89
66524;BME280;53350;52.210;5.160;2023-05-03T02:54:51;103008.63;;;7.93;64.83
66524;BME280;53350;52.210;5.160;2023-05-03T02:57:18;103011.25;;;7.94;64.96
66524;BME280;53350;52.210;5.160;2023-05-03T02:59:45;103013.00;;;7.95;65.23
66524;BME280;53350;52.210;5.160;2023-05-03T03:02:11;103019.06;;;7.97;64.70
66524;BME280;53350;52.210;5.160;2023-05-03T03:04:38;103019.91;;;7.98;64.89
66524;BME280;53350;52.210;5.160;2023-05-03T03:07:06;103022.63;;;8.01;64.47
66524;BME280;53350;52.210;5.160;2023-05-03T03:09:32;103014.91;;;8.01;64.58
66524;BME280;53350;52.210;5.160;2023-05-03T03:11:59;103014.88;;;7.99;64.41
66524;BME280;53350;52.210;5.160;2023-05-03T03:14:27;103020.91;;;8.01;64.65
66524;BME280;53350;52.210;5.160;2023-05-03T03:16:54;103020.91;;;8.01;64.44
66524;BME280;53350;52.210;5.160;2023-05-03T03:19:20;103009.84;;;8.03;64.54
66524;BME280;53350;52.210;5.160;2023-05-03T03:21:46;103005.50;;;8.01;64.62
66524;BME280;53350;52.210;5.160;2023-05-03T03:24:15;103005.50;;;8.01;64.36
66524;BME280;53350;52.210;5.160;2023-05-03T03:26:41;103015.81;;;8.03;64.59
66524;BME280;53350;52.210;5.160;2023-05-03T03:29:08;103019.25;;;8.04;64.26
66524;BME280;53350;52.210;5.160;2023-05-03T03:31:35;103018.38;;;8.03;64.48
66524;BME280;53350;52.210;5.160;2023-05-03T03:34:01;103021.81;;;8.04;64.15
66524;BME280;53350;52.210;5.160;2023-05-03T03:36:27;103023.47;;;8.01;64.41
66524;BME280;53350;52.210;5.160;2023-05-03T03:38:55;103026.00;;;8.00;64.36
66524;BME280;53350;52.210;5.160;2023-05-03T03:41:22;103024.25;;;7.99;64.46
66524;BME280;53350;52.210;5.160;2023-05-03T03:43:49;103025.13;;;7.99;64.46
66524;BME280;53350;52.210;5.160;2023-05-03T03:46:16;103026.81;;;7.99;64.18
66524;BME280;53350;52.210;5.160;2023-05-03T03:48:42;103020.81;;;7.98;64.15
66524;BME280;53350;52.210;5.160;2023-05-03T03:51:08;103027.63;;;7.98;64.14
66524;BME280;53350;52.210;5.160;2023-05-03T03:53:35;103021.56;;;7.96;64.13
66524;BME280;53350;52.210;5.160;2023-05-03T03:56:02;103019.88;;;7.96;64.26
66524;BME280;53350;52.210;5.160;2023-05-03T03:58:30;103024.13;;;7.96;64.25
66524;BME280;53350;52.210;5.160;2023-05-03T04:00:57;103028.41;;;7.95;63.49
66524;BME280;53350;52.210;5.160;2023-05-03T04:03:24;103028.34;;;7.94;64.46
66524;BME280;53350;52.210;5.160;2023-05-03T04:05:51;103024.84;;;7.92;64.36
66524;BME280;53350;52.210;5.160;2023-05-03T04:08:17;103033.38;;;7.91;64.38
66524;BME280;53350;52.210;5.160;2023-05-03T04:10:44;103033.31;;;7.89;64.37
66524;BME280;53350;52.210;5.160;2023-05-03T04:13:11;103028.19;;;7.89;64.20
66524;BME280;53350;52.210;5.160;2023-05-03T04:15:39;103041.78;;;7.87;64.37
66524;BME280;53350;52.210;5.160;2023-05-03T04:18:05;103044.31;;;7.85;64.16
66524;BME280;53350;52.210;5.160;2023-05-03T04:20:32;103034.81;;;7.82;64.38
66524;BME280;53350;52.210;5.160;2023-05-03T04:23:00;103049.22;;;7.79;64.25
66524;BME280;53350;52.210;5.160;2023-05-03T04:25:26;103054.22;;;7.76;64.13
66524;BME280;53350;52.210;5.160;2023-05-03T04:27:53;103050.81;;;7.75;64.49
66524;BME280;53350;52.210;5.160;2023-05-03T04:30:20;103055.03;;;7.75;64.21
66524;BME280;53350;52.210;5.160;2023-05-03T04:32:48;103062.75;;;7.75;63.96
66524;BME280;53350;52.210;5.160;2023-05-03T04:35:14;103065.31;;;7.75;64.22
66524;BME280;53350;52.210;5.160;2023-05-03T04:37:42;103074.75;;;7.76;64.54
66524;BME280;53350;52.210;5.160;2023-05-03T04:40:09;103077.28;;;7.74;64.39
66524;BME280;53350;52.210;5.160;2023-05-03T04:42:36;103073.69;;;7.69;64.65
66524;BME280;53350;52.210;5.160;2023-05-03T04:45:04;103068.50;;;7.68;64.72
66524;BME280;53350;52.210;5.160;2023-05-03T04:47:31;103071.88;;;7.66;64.55
66524;BME280;53350;52.210;5.160;2023-05-03T04:49:59;103079.53;;;7.65;64.50
66524;BME280;53350;52.210;5.160;2023-05-03T04:52:26;103068.41;;;7.66;64.86
66524;BME280;53350;52.210;5.160;2023-05-03T04:54:53;103077.88;;;7.67;64.94
66524;BME280;53350;52.210;5.160;2023-05-03T04:57:20;103075.31;;;7.67;65.11
66524;BME280;53350;52.210;5.160;2023-05-03T04:59:47;103070.28;;;7.70;64.89
66524;BME280;53350;52.210;5.160;2023-05-03T05:02:14;103070.38;;;7.73;65.00
66524;BME280;53350;52.210;5.160;2023-05-03T05:04:40;103074.75;;;7.76;65.32
66524;BME280;53350;52.210;5.160;2023-05-03T05:07:08;103078.28;;;7.78;65.53
66524;BME280;53350;52.210;5.160;2023-05-03T05:09:35;103081.00;;;7.82;65.17
66524;BME280;53350;52.210;5.160;2023-05-03T05:12:02;103082.91;;;7.88;65.57
66524;BME280;53350;52.210;5.160;2023-05-03T05:14:29;103091.78;;;7.98;65.80
66524;BME280;53350;52.210;5.160;2023-05-03T05:16:56;103090.47;;;8.09;65.74
66524;BME280;53350;52.210;5.160;2023-05-03T05:19:22;103090.13;;;8.24;65.61
66524;BME280;53350;52.210;5.160;2023-05-03T05:21:49;103082.88;;;8.38;65.44
66524;BME280;53350;52.210;5.160;2023-05-03T05:24:17;103085.88;;;8.50;65.57
66524;BME280;53350;52.210;5.160;2023-05-03T05:26:44;103083.84;;;8.67;65.19
66524;BME280;53350;52.210;5.160;2023-05-03T05:29:11;103072.41;;;8.85;64.99
66524;BME280;53350;52.210;5.160;2023-05-03T05:31:37;103072.06;;;9.01;64.67
66524;BME280;53350;52.210;5.160;2023-05-03T05:34:04;103073.44;;;9.19;64.29
66524;BME280;53350;52.210;5.160;2023-05-03T05:36:30;103066.16;;;9.34;63.81
66524;BME280;53350;52.210;5.160;2023-05-03T05:38:57;103077.84;;;9.53;63.47
66524;BME280;53350;52.210;5.160;2023-05-03T05:41:25;103074.00;;;9.69;62.60
66524;BME280;53350;52.210;5.160;2023-05-03T05:43:51;103077.75;;;9.81;62.99
66524;BME280;53350;52.210;5.160;2023-05-03T05:46:18;103069.66;;;10.00;62.05
66524;BME280;53350;52.210;5.160;2023-05-03T05:48:45;103076.97;;;10.17;61.63
66524;BME280;53350;52.210;5.160;2023-05-03T05:51:12;103069.56;;;10.31;61.22
66524;BME280;53350;52.210;5.160;2023-05-03T05:53:38;103078.47;;;10.42;60.65
66524;BME280;53350;52.210;5.160;2023-05-03T05:56:05;103078.59;;;10.48;60.61
66524;BME280;53350;52.210;5.160;2023-05-03T05:58:34;103086.38;;;10.50;60.23
66524;BME280;53350;52.210;5.160;2023-05-03T06:01:02;103086.63;;;10.59;60.51
66524;BME280;53350;52.210;5.160;2023-05-03T06:03:29;103086.84;;;10.70;59.36
66524;BME280;53350;52.210;5.160;2023-05-03T06:05:55;103083.59;;;10.77;58.92
66524;BME280;53350;52.210;5.160;2023-05-03T06:08:22;103090.63;;;10.84;58.14
66524;BME280;53350;52.210;5.160;2023-05-03T06:10:48;103090.84;;;10.93;57.45
66524;BME280;53350;52.210;5.160;2023-05-03T06:13:17;103089.13;;;10.94;57.01
66524;BME280;53350;52.210;5.160;2023-05-03T06:15:44;103079.69;;;10.94;57.09
66524;BME280;53350;52.210;5.160;2023-05-03T06:18:11;103074.59;;;10.98;56.85
66524;BME280;53350;52.210;5.160;2023-05-03T06:20:37;103078.22;;;11.06;56.73
66524;BME280;53350;52.210;5.160;2023-05-03T06:23:04;103074.88;;;11.10;56.85
66524;BME280;53350;52.210;5.160;2023-05-03T06:25:30;103076.84;;;11.22;56.52
66524;BME280;53350;52.210;5.160;2023-05-03T06:27:57;103073.44;;;11.23;56.24
66524;BME280;53350;52.210;5.160;2023-05-03T06:30:23;103076.13;;;11.29;55.39
66524;BME280;53350;52.210;5.160;2023-05-03T06:32:53;103075.22;;;11.25;55.67
66524;BME280;53350;52.210;5.160;2023-05-03T06:35:20;103080.44;;;11.28;55.48
66524;BME280;53350;52.210;5.160;2023-05-03T06:37:47;103072.81;;;11.35;55.09
66524;BME280;53350;52.210;5.160;2023-05-03T06:40:13;103078.66;;;11.27;54.42
66524;BME280;53350;52.210;5.160;2023-05-03T06:42:40;103070.88;;;11.24;54.33
66524;BME280;53350;52.210;5.160;2023-05-03T06:45:07;103071.75;;;11.26;54.39
66524;BME280;53350;52.210;5.160;2023-05-03T06:47:34;103069.22;;;11.28;54.23
66524;BME280;53350;52.210;5.160;2023-05-03T06:50:03;103070.09;;;11.28;53.74
66524;BME280;53350;52.210;5.160;2023-05-03T06:52:29;103075.28;;;11.30;53.76
66524;BME280;53350;52.210;5.160;2023-05-03T06:54:56;103068.38;;;11.29;53.68
66524;BME280;53350;52.210;5.160;2023-05-03T06:57:22;103069.38;;;11.34;53.40
66524;BME280;53350;52.210;5.160;2023-05-03T06:59:49;103064.19;;;11.34;53.15
66524;BME280;53350;52.210;5.160;2023-05-03T07:02:16;103060.00;;;11.39;53.30
66524;BME280;53350;52.210;5.160;2023-05-03T07:04:43;103057.53;;;11.47;52.93
66524;BME280;53350;52.210;5.160;2023-05-03T07:07:11;103055.84;;;11.47;53.51
66524;BME280;53350;52.210;5.160;2023-05-03T07:09:37;103051.75;;;11.57;54.32
66524;BME280;53350;52.210;5.160;2023-05-03T07:12:04;103049.47;;;11.74;54.04
66524;BME280;53350;52.210;5.160;2023-05-03T07:14:30;103044.59;;;11.90;52.33
66524;BME280;53350;52.210;5.160;2023-05-03T07:16:57;103049.00;;;11.94;51.75
66524;BME280;53350;52.210;5.160;2023-05-03T07:19:23;103047.97;;;11.87;51.78
66524;BME280;53350;52.210;5.160;2023-05-03T07:21:50;103041.03;;;11.84;51.50
66524;BME280;53350;52.210;5.160;2023-05-03T07:24:18;103030.97;;;11.97;51.11
66524;BME280;53350;52.210;5.160;2023-05-03T07:26:44;103030.25;;;12.04;51.38
66524;BME280;53350;52.210;5.160;2023-05-03T07:29:11;103036.53;;;12.20;50.30
66524;BME280;53350;52.210;5.160;2023-05-03T07:31:37;103024.50;;;12.22;49.16
66524;BME280;53350;52.210;5.160;2023-05-03T07:34:04;103025.25;;;12.16;49.40
66524;BME280;53350;52.210;5.160;2023-05-03T07:36:31;103014.09;;;12.19;49.08
66524;BME280;53350;52.210;5.160;2023-05-03T07:38:57;103025.47;;;12.29;48.15
66524;BME280;53350;52.210;5.160;2023-05-03T07:41:25;103027.09;;;12.24;47.82
66524;BME280;53350;52.210;5.160;2023-05-03T07:43:52;103017.63;;;12.23;47.60
66524;BME280;53350;52.210;5.160;2023-05-03T07:46:19;102998.66;;;12.24;47.79
66524;BME280;53350;52.210;5.160;2023-05-03T07:48:45;103009.91;;;12.26;47.76
66524;BME280;53350;52.210;5.160;2023-05-03T07:51:12;103010.00;;;12.32;47.91
66524;BME280;53350;52.210;5.160;2023-05-03T07:53:38;103015.19;;;12.33;48.07
66524;BME280;53350;52.210;5.160;2023-05-03T07:56:05;103011.84;;;12.39;47.75
66524;BME280;53350;52.210;5.160;2023-05-03T07:58:33;103013.72;;;12.49;48.31
66524;BME280;53350;52.210;5.160;2023-05-03T08:01:01;103000.03;;;12.58;47.93
66524;BME280;53350;52.210;5.160;2023-05-03T08:03:27;103011.41;;;12.69;47.59
66524;BME280;53350;52.210;5.160;2023-05-03T08:05:54;103008.16;;;12.84;47.28
66524;BME280;53350;52.210;5.160;2023-05-03T08:08:20;103001.47;;;13.00;45.99
66524;BME280;53350;52.210;5.160;2023-05-03T08:10:48;103000.66;;;13.04;45.74
66524;BME280;53350;52.210;5.160;2023-05-03T08:13:14;103011.09;;;13.11;45.80
66524;BME280;53350;52.210;5.160;2023-05-03T08:15:42;102998.25;;;13.18;45.67
66524;BME280;53350;52.210;5.160;2023-05-03T08:18:10;102997.50;;;13.29;44.99
66524;BME280;53350;52.210;5.160;2023-05-03T08:20:36;102981.88;;;13.21;45.51
66524;BME280;53350;52.210;5.160;2023-05-03T08:23:03;102973.25;;;13.23;45.27
66524;BME280;53350;52.210;5.160;2023-05-03T08:25:30;102969.81;;;13.21;44.90
66524;BME280;53350;52.210;5.160;2023-05-03T08:27:56;102981.94;;;13.26;44.72
66524;BME280;53350;52.210;5.160;2023-05-03T08:30:23;102981.88;;;13.21;44.82
66524;BME280;53350;52.210;5.160;2023-05-03T08:32:51;102989.81;;;13.35;45.11
66524;BME280;53350;52.210;5.160;2023-05-03T08:35:18;102990.84;;;13.49;44.37
66524;BME280;53350;52.210;5.160;2023-05-03T08:37:45;102989.22;;;13.59;45.13
66524;BME280;53350;52.210;5.160;2023-05-03T08:40:12;102994.56;;;13.74;43.51
66524;BME280;53350;52.210;5.160;2023-05-03T08:42:41;103005.81;;;13.81;43.40
66524;BME280;53350;52.210;5.160;2023-05-03T08:45:09;103000.59;;;13.77;43.03
66524;BME280;53350;52.210;5.160;2023-05-03T08:47:37;102998.06;;;13.84;43.13
66524;BME280;53350;52.210;5.160;2023-05-03T08:50:08;102997.34;;;13.98;43.09
66524;BME280;53350;52.210;5.160;2023-05-03T08:52:35;103005.16;;;14.07;43.20
66524;BME280;53350;52.210;5.160;2023-05-03T08:55:02;103011.31;;;14.18;42.24
66524;BME280;53350;52.210;5.160;2023-05-03T08:57:29;103010.47;;;14.21;42.01
66524;BME280;53350;52.210;5.160;2023-05-03T08:59:56;103000.03;;;14.16;42.27
66524;BME280;53350;52.210;5.160;2023-05-03T09:02:26;102999.16;;;14.09;42.90
66524;BME280;53350;52.210;5.160;2023-05-03T09:04:52;103000.97;;;14.21;43.15
66524;BME280;53350;52.210;5.160;2023-05-03T09:07:21;103006.19;;;14.26;42.92
66524;BME280;53350;52.210;5.160;2023-05-03T09:09:48;103002.78;;;14.33;42.92
66524;BME280;53350;52.210;5.160;2023-05-03T09:12:32;103009.81;;;14.53;42.50
66524;BME280;53350;52.210;5.160;2023-05-03T09:14:59;103003.88;;;14.65;42.18
66524;BME280;53350;52.210;5.160;2023-05-03T09:17:26;103012.50;;;14.67;42.34
66524;BME280;53350;52.210;5.160;2023-05-03T09:19:53;102998.69;;;14.65;42.27
66524;BME280;53350;52.210;5.160;2023-05-03T09:22:25;103004.75;;;14.70;41.86
66524;BME280;53350;52.210;5.160;2023-05-03T09:24:52;103007.38;;;14.74;41.50
66524;BME280;53350;52.210;5.160;2023-05-03T09:27:19;103003.88;;;14.68;41.01
66524;BME280;53350;52.210;5.160;2023-05-03T09:29:47;102996.09;;;14.65;41.80
66524;BME280;53350;52.210;5.160;2023-05-03T09:32:13;103002.13;;;14.65;41.77
66524;BME280;53350;52.210;5.160;2023-05-03T09:34:40;102996.09;;;14.68;41.76
66524;BME280;53350;52.210;5.160;2023-05-03T09:37:06;103003.03;;;14.66;41.63
66524;BME280;53350;52.210;5.160;2023-05-03T09:39:34;103006.34;;;14.52;41.76
66524;BME280;53350;52.210;5.160;2023-05-03T09:42:09;103005.47;;;14.47;41.75
66524;BME280;53350;52.210;5.160;2023-05-03T09:44:40;103001.09;;;14.41;42.17
66524;BME280;53350;52.210;5.160;2023-05-03T09:47:09;103004.56;;;14.45;42.06
66524;BME280;53350;52.210;5.160;2023-05-03T09:49:36;103003.75;;;14.54;42.34
66524;BME280;53350;52.210;5.160;2023-05-03T09:52:04;102991.81;;;14.76;41.84
66524;BME280;53350;52.210;5.160;2023-05-03T09:54:32;102993.63;;;14.92;41.05
66524;BME280;53350;52.210;5.160;2023-05-03T09:57:01;102998.81;;;14.92;41.27
66524;BME280;53350;52.210;5.160;2023-05-03T09:59:29;102994.44;;;14.82;41.28
66524;BME280;53350;52.210;5.160;2023-05-03T10:01:57;103003.91;;;14.75;41.16
66524;BME280;53350;52.210;5.160;2023-05-03T10:04:25;102988.34;;;14.75;41.32
66524;BME280;53350;52.210;5.160;2023-05-03T10:06:57;102980.56;;;14.78;41.33
66524;BME280;53350;52.210;5.160;2023-05-03T10:09:29;102983.22;;;14.88;40.74
66524;BME280;53350;52.210;5.160;2023-05-03T10:12:01;102987.47;;;14.72;40.77
66524;BME280;53350;52.210;5.160;2023-05-03T10:14:30;102985.72;;;14.71;40.78
66524;BME280;53350;52.210;5.160;2023-05-03T10:17:00;102969.19;;;14.55;40.90
66524;BME280;53350;52.210;5.160;2023-05-03T10:19:36;102971.78;;;14.55;41.54
66524;BME280;53350;52.210;5.160;2023-05-03T10:22:06;102982.22;;;14.64;41.48
66524;BME280;53350;52.210;5.160;2023-05-03T10:24:33;102983.16;;;14.77;40.88
66524;BME280;53350;52.210;5.160;2023-05-03T10:27:01;102982.38;;;14.90;40.27
66524;BME280;53350;52.210;5.160;2023-05-03T10:29:44;102969.41;;;14.97;39.35
66524;BME280;53350;52.210;5.160;2023-05-03T10:32:32;102971.19;;;15.07;39.16
66524;BME280;53350;52.210;5.160;2023-05-03T10:35:00;102981.56;;;15.10;39.79
66524;BME280;53350;52.210;5.160;2023-05-03T10:37:28;102975.53;;;15.16;39.82
66524;BME280;53350;52.210;5.160;2023-05-03T10:39:55;102975.53;;;15.11;40.10
66524;BME280;53350;52.210;5.160;2023-05-03T10:42:23;102972.00;;;14.98;40.63
66524;BME280;53350;52.210;5.160;2023-05-03T10:44:52;102966.84;;;15.06;40.68
66524;BME280;53350;52.210;5.160;2023-05-03T10:47:21;102960.81;;;15.19;40.47
66524;BME280;53350;52.210;5.160;2023-05-03T10:52:46;102960.84;;;15.32;39.21
66524;BME280;53350;52.210;5.160;2023-05-03T10:55:14;102968.66;;;15.42;39.30
66524;BME280;53350;52.210;5.160;2023-05-03T10:57:44;102965.19;;;15.46;38.87
66524;BME280;53350;52.210;5.160;2023-05-03T11:00:13;102947.88;;;15.35;38.67
66524;BME280;53350;52.210;5.160;2023-05-03T11:02:48;102959.16;;;15.46;38.54
66524;BME280;53350;52.210;5.160;2023-05-03T11:05:24;102950.50;;;15.45;38.78
66524;BME280;53350;52.210;5.160;2023-05-03T11:08:06;102950.50;;;15.52;39.13
66524;BME280;53350;52.210;5.160;2023-05-03T11:10:33;102938.38;;;15.55;38.78
66524;BME280;53350;52.210;5.160;2023-05-03T11:13:01;102935.75;;;15.57;38.63
66524;BME280;53350;52.210;5.160;2023-05-03T11:15:27;102927.97;;;15.38;39.58
66524;BME280;53350;52.210;5.160;2023-05-03T11:17:54;102923.63;;;15.46;39.19
66524;BME280;53350;52.210;5.160;2023-05-03T11:20:20;102921.06;;;15.57;39.11
66524;BME280;53350;52.210;5.160;2023-05-03T11:22:47;102930.59;;;15.58;38.55
66524;BME280;53350;52.210;5.160;2023-05-03T11:25:13;102926.25;;;15.57;38.96
66524;BME280;53350;52.210;5.160;2023-05-03T11:27:40;102934.91;;;15.59;39.03
66524;BME280;53350;52.210;5.160;2023-05-03T11:30:09;102923.66;;;15.43;39.19
66524;BME280;53350;52.210;5.160;2023-05-03T11:32:36;102929.72;;;15.53;39.13
66524;BME280;53350;52.210;5.160;2023-05-03T11:35:03;102923.66;;;15.51;39.63
66524;BME280;53350;52.210;5.160;2023-05-03T11:37:31;102917.59;;;15.57;39.33
66524;BME280;53350;52.210;5.160;2023-05-03T11:39:58;102913.25;;;15.46;39.79
66524;BME280;53350;52.210;5.160;2023-05-03T11:42:24;102921.91;;;15.39;40.43
66524;BME280;53350;52.210;5.160;2023-05-03T11:44:52;102920.19;;;15.46;40.23
66524;BME280;53350;52.210;5.160;2023-05-03T11:47:20;102902.00;;;15.49;40.68
66524;BME280;53350;52.210;5.160;2023-05-03T11:49:50;102917.59;;;15.51;40.76
66524;BME280;53350;52.210;5.160;2023-05-03T11:52:19;102906.34;;;15.58;40.48
66524;BME280;53350;52.210;5.160;2023-05-03T11:54:46;102897.69;;;15.59;40.61
66524;BME280;53350;52.210;5.160;2023-05-03T11:57:12;102900.28;;;15.65;41.05
66524;BME280;53350;52.210;5.160;2023-05-03T11:59:40;102903.72;;;15.78;40.59
66524;BME280;53350;52.210;5.160;2023-05-03T12:02:10;102893.38;;;15.81;40.39
66524;BME280;53350;52.210;5.160;2023-05-03T12:04:39;102883.84;;;15.83;40.12
66524;BME280;53350;52.210;5.160;2023-05-03T12:07:06;102886.44;;;15.80;40.29
66524;BME280;53350;52.210;5.160;2023-05-03T12:09:33;102878.59;;;15.77;40.34
66524;BME280;53350;52.210;5.160;2023-05-03T12:12:00;102873.47;;;15.81;40.54
66524;BME280;53350;52.210;5.160;2023-05-03T12:14:27;102867.34;;;15.89;40.39
66524;BME280;53350;52.210;5.160;2023-05-03T12:16:53;102868.25;;;15.89;40.12
66524;BME280;53350;52.210;5.160;2023-05-03T12:19:25;102870.88;;;15.81;40.59
66524;BME280;53350;52.210;5.160;2023-05-03T12:21:54;102875.19;;;15.79;40.76
66524;BME280;53350;52.210;5.160;2023-05-03T12:24:21;102872.56;;;15.72;40.89
66524;BME280;53350;52.210;5.160;2023-05-03T12:26:48;102863.03;;;15.71;40.85
66524;BME280;53350;52.210;5.160;2023-05-03T12:29:15;102864.78;;;15.73;41.12
66524;BME280;53350;52.210;5.160;2023-05-03T12:31:41;102859.56;;;15.78;40.63
66524;BME280;53350;52.210;5.160;2023-05-03T12:34:08;102857.84;;;15.78;40.80
66524;BME280;53350;52.210;5.160;2023-05-03T12:36:36;102856.09;;;15.77;40.73
66524;BME280;53350;52.210;5.160;2023-05-03T12:39:04;102848.34;;;15.80;41.00
66524;BME280;53350;52.210;5.160;2023-05-03T12:41:32;102839.66;;;15.83;40.64
66524;BME280;53350;52.210;5.160;2023-05-03T12:43:58;102843.97;;;15.89;40.67
66524;BME280;53350;52.210;5.160;2023-05-03T12:46:26;102848.34;;;15.80;40.44
66524;BME280;53350;52.210;5.160;2023-05-03T12:48:53;102841.38;;;15.84;40.64
66524;BME280;53350;52.210;5.160;2023-05-03T12:51:19;102833.56;;;15.87;40.25
66524;BME280;53350;52.210;5.160;2023-05-03T12:53:46;102841.38;;;15.84;40.62
66524;BME280;53350;52.210;5.160;2023-05-03T12:56:14;102820.59;;;15.92;40.49
66524;BME280;53350;52.210;5.160;2023-05-03T12:58:41;102818.00;;;15.90;40.09
66524;BME280;53350;52.210;5.160;2023-05-03T13:01:09;102810.19;;;15.90;40.27